Terminal Aerodrome Forecast
Issued by NWS

Current Version | Previous Version | Graphics & Text | Print | Product List | Glossary On
Versions: 1 2 3 4 5 6 7 8 9 10 11 12 13 14 15 16 17 18 19 20 21 22 23 24 25 26 27 28
285
FTUS41 KRLX 170556 CCA
TAFCKB
TAF COR
KCKB 170556Z 1706/1806 00000KT 1/2SM FG BKN001 OVC060
      TEMPO 1706/1708 VRB03KT 2SM -SHRA BR SCT001
     FM171000 15004KT 3SM -SHRA BR OVC060
     FM171600 20009G15KT 5SM -SHRA OVC025
     FM172200 23010G16KT 5SM -SHRA OVC015
     FM180200 25008KT P6SM BKN015=

USA.gov is the U.S. government's official web portal to all federal, state and local government web resources and services.